sensor_id;sensor_type;location;lat;lon;timestamp;P1;durP1;ratioP1;P2;durP2;ratioP2
15921;SDS011;8060;50.948;3.146;2023-06-10T06:57:46;12.63;;;9.70;;
15921;SDS011;8060;50.948;3.146;2023-06-10T07:00:14;13.60;;;9.75;;
15921;SDS011;8060;50.948;3.146;2023-06-10T07:02:43;13.77;;;9.48;;
15921;SDS011;8060;50.948;3.146;2023-06-10T07:35:28;12.07;;;9.15;;
15921;SDS011;8060;50.948;3.146;2023-06-10T07:37:56;11.82;;;9.00;;
15921;SDS011;8060;50.948;3.146;2023-06-10T07:40:24;14.20;;;8.55;;
15921;SDS011;8060;50.948;3.146;2023-06-10T07:42:53;16.02;;;9.13;;
15921;SDS011;8060;50.948;3.146;2023-06-10T07:45:21;12.48;;;8.45;;
15921;SDS011;8060;50.948;3.146;2023-06-10T07:47:49;13.63;;;8.65;;
15921;SDS011;8060;50.948;3.146;2023-06-10T07:50:17;11.98;;;8.40;;
15921;SDS011;8060;50.948;3.146;2023-06-10T07:52:47;10.13;;;7.97;;
15921;SDS011;8060;50.948;3.146;2023-06-10T07:55:15;13.07;;;7.80;;
15921;SDS011;8060;50.948;3.146;2023-06-10T07:57:43;11.65;;;8.63;;
15921;SDS011;8060;50.948;3.146;2023-06-10T08:00:11;12.15;;;8.63;;
15921;SDS011;8060;50.948;3.146;2023-06-10T08:02:40;14.30;;;8.75;;
15921;SDS011;8060;50.948;3.146;2023-06-10T08:05:08;8.85;;;7.95;;
15921;SDS011;8060;50.948;3.146;2023-06-10T08:07:37;15.27;;;8.13;;
15921;SDS011;8060;50.948;3.146;2023-06-10T08:10:08;14.07;;;8.45;;
15921;SDS011;8060;50.948;3.146;2023-06-10T08:12:36;9.45;;;7.90;;
15921;SDS011;8060;50.948;3.146;2023-06-10T08:15:06;13.30;;;8.25;;
15921;SDS011;8060;50.948;3.146;2023-06-10T08:17:36;10.57;;;7.82;;
15921;SDS011;8060;50.948;3.146;2023-06-10T08:20:06;13.77;;;8.07;;
15921;SDS011;8060;50.948;3.146;2023-06-10T08:22:34;8.85;;;7.43;;
15921;SDS011;8060;50.948;3.146;2023-06-10T08:25:02;8.90;;;7.13;;
15921;SDS011;8060;50.948;3.146;2023-06-10T08:27:32;12.75;;;7.53;;
15921;SDS011;8060;50.948;3.146;2023-06-10T08:30:00;15.05;;;7.88;;
15921;SDS011;8060;50.948;3.146;2023-06-10T08:32:29;12.13;;;7.65;;
15921;SDS011;8060;50.948;3.146;2023-06-10T08:34:57;13.18;;;7.18;;
15921;SDS011;8060;50.948;3.146;2023-06-10T08:37:26;10.00;;;7.60;;
15921;SDS011;8060;50.948;3.146;2023-06-10T08:39:54;9.38;;;7.40;;
15921;SDS011;8060;50.948;3.146;2023-06-10T08:42:22;12.00;;;7.00;;
15921;SDS011;8060;50.948;3.146;2023-06-10T08:44:56;9.90;;;7.05;;
15921;SDS011;8060;50.948;3.146;2023-06-10T08:47:29;10.45;;;7.03;;
15921;SDS011;8060;50.948;3.146;2023-06-10T08:49:58;12.88;;;7.15;;
15921;SDS011;8060;50.948;3.146;2023-06-10T08:52:34;11.70;;;6.75;;
15921;SDS011;8060;50.948;3.146;2023-06-10T08:55:04;8.57;;;7.05;;
15921;SDS011;8060;50.948;3.146;2023-06-10T08:57:38;10.75;;;6.80;;
15921;SDS011;8060;50.948;3.146;2023-06-10T09:00:10;8.65;;;6.57;;
15921;SDS011;8060;50.948;3.146;2023-06-10T09:02:39;8.57;;;6.68;;
15921;SDS011;8060;50.948;3.146;2023-06-10T09:05:08;14.10;;;6.95;;
15921;SDS011;8060;50.948;3.146;2023-06-10T09:07:36;8.48;;;6.97;;
15921;SDS011;8060;50.948;3.146;2023-06-10T09:10:06;10.05;;;6.93;;
15921;SDS011;8060;50.948;3.146;2023-06-10T09:12:35;11.60;;;7.18;;
15921;SDS011;8060;50.948;3.146;2023-06-10T09:15:04;12.25;;;6.28;;
15921;SDS011;8060;50.948;3.146;2023-06-10T09:17:35;12.32;;;6.18;;
15921;SDS011;8060;50.948;3.146;2023-06-10T09:20:05;9.88;;;6.10;;
15921;SDS011;8060;50.948;3.146;2023-06-10T09:22:36;8.45;;;6.07;;
15921;SDS011;8060;50.948;3.146;2023-06-10T09:25:05;8.95;;;5.90;;
15921;SDS011;8060;50.948;3.146;2023-06-10T09:27:43;12.63;;;6.07;;
15921;SDS011;8060;50.948;3.146;2023-06-10T09:30:24;12.13;;;6.10;;
15921;SDS011;8060;50.948;3.146;2023-06-10T09:32:55;10.90;;;5.95;;
15921;SDS011;8060;50.948;3.146;2023-06-10T09:35:24;8.50;;;6.47;;
15921;SDS011;8060;50.948;3.146;2023-06-10T09:37:55;11.02;;;5.85;;
15921;SDS011;8060;50.948;3.146;2023-06-10T09:40:24;6.22;;;5.63;;
15921;SDS011;8060;50.948;3.146;2023-06-10T09:42:53;8.65;;;6.93;;
15921;SDS011;8060;50.948;3.146;2023-06-10T09:45:22;11.52;;;6.68;;
15921;SDS011;8060;50.948;3.146;2023-06-10T09:47:56;12.65;;;6.85;;
15921;SDS011;8060;50.948;3.146;2023-06-10T09:50:24;9.15;;;6.15;;
15921;SDS011;8060;50.948;3.146;2023-06-10T09:52:52;10.25;;;6.43;;
15921;SDS011;8060;50.948;3.146;2023-06-10T09:55:20;7.93;;;6.20;;
15921;SDS011;8060;50.948;3.146;2023-06-10T09:57:49;13.98;;;6.03;;
15921;SDS011;8060;50.948;3.146;2023-06-10T10:00:21;8.60;;;6.28;;
15921;SDS011;8060;50.948;3.146;2023-06-10T10:02:51;9.20;;;6.30;;
15921;SDS011;8060;50.948;3.146;2023-06-10T10:05:22;7.18;;;5.60;;
15921;SDS011;8060;50.948;3.146;2023-06-10T10:07:50;6.82;;;6.00;;
15921;SDS011;8060;50.948;3.146;2023-06-10T10:10:20;6.63;;;5.43;;
15921;SDS011;8060;50.948;3.146;2023-06-10T10:12:50;5.97;;;5.38;;
15921;SDS011;8060;50.948;3.146;2023-06-10T10:15:22;9.43;;;6.57;;
15921;SDS011;8060;50.948;3.146;2023-06-10T10:17:58;6.53;;;5.60;;
15921;SDS011;8060;50.948;3.146;2023-06-10T10:20:37;9.48;;;5.55;;
15921;SDS011;8060;50.948;3.146;2023-06-10T10:23:10;7.60;;;5.20;;
15921;SDS011;8060;50.948;3.146;2023-06-10T10:25:42;7.32;;;5.32;;
15921;SDS011;8060;50.948;3.146;2023-06-10T10:28:12;6.25;;;4.80;;
15921;SDS011;8060;50.948;3.146;2023-06-10T10:30:45;8.50;;;5.30;;
15921;SDS011;8060;50.948;3.146;2023-06-10T10:33:16;8.48;;;4.95;;
15921;SDS011;8060;50.948;3.146;2023-06-10T10:35:50;7.95;;;5.50;;
15921;SDS011;8060;50.948;3.146;2023-06-10T10:38:19;7.38;;;5.00;;
15921;SDS011;8060;50.948;3.146;2023-06-10T10:40:48;9.60;;;4.88;;
15921;SDS011;8060;50.948;3.146;2023-06-10T10:43:17;7.03;;;5.03;;
15921;SDS011;8060;50.948;3.146;2023-06-10T10:45:46;9.77;;;4.88;;
15921;SDS011;8060;50.948;3.146;2023-06-10T10:48:25;5.60;;;4.82;;
15921;SDS011;8060;50.948;3.146;2023-06-10T10:50:57;7.32;;;4.40;;
15921;SDS011;8060;50.948;3.146;2023-06-10T10:53:25;4.82;;;4.20;;
15921;SDS011;8060;50.948;3.146;2023-06-10T10:56:00;6.82;;;4.45;;
15921;SDS011;8060;50.948;3.146;2023-06-10T10:58:33;7.60;;;5.07;;
15921;SDS011;8060;50.948;3.146;2023-06-10T11:01:09;8.13;;;4.45;;
15921;SDS011;8060;50.948;3.146;2023-06-10T11:03:42;9.77;;;4.85;;
15921;SDS011;8060;50.948;3.146;2023-06-10T11:06:15;8.45;;;4.30;;
15921;SDS011;8060;50.948;3.146;2023-06-10T11:08:47;6.03;;;4.10;;
15921;SDS011;8060;50.948;3.146;2023-06-10T11:11:21;6.60;;;4.68;;
15921;SDS011;8060;50.948;3.146;2023-06-10T11:13:58;6.57;;;4.38;;
15921;SDS011;8060;50.948;3.146;2023-06-10T11:16:38;5.72;;;4.47;;
15921;SDS011;8060;50.948;3.146;2023-06-10T11:19:09;9.43;;;4.70;;
15921;SDS011;8060;50.948;3.146;2023-06-10T11:21:49;7.20;;;4.55;;
15921;SDS011;8060;50.948;3.146;2023-06-10T11:24:26;15.00;;;4.65;;
15921;SDS011;8060;50.948;3.146;2023-06-10T11:32:50;12.23;;;4.45;;
15921;SDS011;8060;50.948;3.146;2023-06-10T11:35:20;10.40;;;5.07;;
15921;SDS011;8060;50.948;3.146;2023-06-10T11:37:52;8.20;;;4.30;;
15921;SDS011;8060;50.948;3.146;2023-06-10T11:40:21;6.95;;;4.57;;
15921;SDS011;8060;50.948;3.146;2023-06-10T11:42:50;12.38;;;4.72;;
15921;SDS011;8060;50.948;3.146;2023-06-10T11:45:18;7.35;;;4.13;;
15921;SDS011;8060;50.948;3.146;2023-06-10T11:47:55;5.70;;;4.07;;
15921;SDS011;8060;50.948;3.146;2023-06-10T11:50:28;14.55;;;4.97;;
15921;SDS011;8060;50.948;3.146;2023-06-10T11:52:59;10.82;;;4.30;;
15921;SDS011;8060;50.948;3.146;2023-06-10T11:55:39;6.25;;;4.15;;
15921;SDS011;8060;50.948;3.146;2023-06-10T11:58:12;9.98;;;4.65;;
15921;SDS011;8060;50.948;3.146;2023-06-10T12:00:44;4.97;;;4.40;;
15921;SDS011;8060;50.948;3.146;2023-06-10T12:03:15;4.70;;;4.10;;
15921;SDS011;8060;50.948;3.146;2023-06-10T12:05:54;15.07;;;4.75;;
15921;SDS011;8060;50.948;3.146;2023-06-10T12:08:25;8.13;;;4.18;;
15921;SDS011;8060;50.948;3.146;2023-06-10T12:10:53;5.68;;;4.25;;
15921;SDS011;8060;50.948;3.146;2023-06-10T12:13:22;6.25;;;3.95;;
15921;SDS011;8060;50.948;3.146;2023-06-10T12:15:51;4.50;;;3.80;;
15921;SDS011;8060;50.948;3.146;2023-06-10T12:18:19;5.97;;;4.38;;
15921;SDS011;8060;50.948;3.146;2023-06-10T12:20:48;8.20;;;4.05;;
15921;SDS011;8060;50.948;3.146;2023-06-10T12:23:17;7.78;;;4.00;;
15921;SDS011;8060;50.948;3.146;2023-06-10T12:25:50;6.25;;;3.90;;
15921;SDS011;8060;50.948;3.146;2023-06-10T12:28:20;9.85;;;4.47;;
15921;SDS011;8060;50.948;3.146;2023-06-10T12:30:49;7.38;;;4.55;;
15921;SDS011;8060;50.948;3.146;2023-06-10T12:33:17;5.15;;;4.00;;
15921;SDS011;8060;50.948;3.146;2023-06-10T12:35:48;10.30;;;4.53;;
15921;SDS011;8060;50.948;3.146;2023-06-10T12:38:21;5.95;;;4.43;;
15921;SDS011;8060;50.948;3.146;2023-06-10T12:40:52;9.30;;;4.30;;
15921;SDS011;8060;50.948;3.146;2023-06-10T12:43:20;7.03;;;4.78;;
15921;SDS011;8060;50.948;3.146;2023-06-10T12:45:49;8.68;;;4.00;;
15921;SDS011;8060;50.948;3.146;2023-06-10T12:48:18;8.10;;;4.70;;
15921;SDS011;8060;50.948;3.146;2023-06-10T12:50:50;7.38;;;3.95;;
15921;SDS011;8060;50.948;3.146;2023-06-10T12:53:19;5.25;;;4.05;;
15921;SDS011;8060;50.948;3.146;2023-06-10T12:55:49;6.80;;;4.30;;
15921;SDS011;8060;50.948;3.146;2023-06-10T12:58:20;5.78;;;4.22;;
15921;SDS011;8060;50.948;3.146;2023-06-10T13:00:49;4.82;;;4.20;;
15921;SDS011;8060;50.948;3.146;2023-06-10T13:03:19;7.47;;;4.65;;
15921;SDS011;8060;50.948;3.146;2023-06-10T13:05:48;9.38;;;4.45;;
15921;SDS011;8060;50.948;3.146;2023-06-10T13:08:16;7.95;;;4.32;;
15921;SDS011;8060;50.948;3.146;2023-06-10T13:10:44;6.03;;;4.40;;
15921;SDS011;8060;50.948;3.146;2023-06-10T13:13:12;5.70;;;4.47;;
15921;SDS011;8060;50.948;3.146;2023-06-10T13:15:42;6.03;;;4.65;;
15921;SDS011;8060;50.948;3.146;2023-06-10T13:18:10;4.47;;;4.07;;
15921;SDS011;8060;50.948;3.146;2023-06-10T13:20:38;6.70;;;4.10;;
15921;SDS011;8060;50.948;3.146;2023-06-10T13:23:07;9.85;;;4.32;;
15921;SDS011;8060;50.948;3.146;2023-06-10T13:25:35;8.95;;;4.22;;
15921;SDS011;8060;50.948;3.146;2023-06-10T13:28:03;11.50;;;4.85;;
15921;SDS011;8060;50.948;3.146;2023-06-10T13:30:31;8.55;;;4.25;;
15921;SDS011;8060;50.948;3.146;2023-06-10T13:33:01;6.85;;;4.32;;
15921;SDS011;8060;50.948;3.146;2023-06-10T13:35:29;6.30;;;4.55;;
15921;SDS011;8060;50.948;3.146;2023-06-10T13:37:57;9.20;;;4.47;;
15921;SDS011;8060;50.948;3.146;2023-06-10T13:40:25;5.28;;;4.60;;
15921;SDS011;8060;50.948;3.146;2023-06-10T13:42:54;6.43;;;4.80;;
15921;SDS011;8060;50.948;3.146;2023-06-10T13:45:22;5.72;;;4.55;;
15921;SDS011;8060;50.948;3.146;2023-06-10T13:47:51;7.38;;;4.47;;
15921;SDS011;8060;50.948;3.146;2023-06-10T13:50:20;9.85;;;4.93;;
15921;SDS011;8060;50.948;3.146;2023-06-10T13:52:48;6.70;;;4.95;;
15921;SDS011;8060;50.948;3.146;2023-06-10T13:55:16;6.95;;;5.07;;
15921;SDS011;8060;50.948;3.146;2023-06-10T13:57:46;5.45;;;4.30;;
15921;SDS011;8060;50.948;3.146;2023-06-10T14:00:14;8.63;;;4.75;;
15921;SDS011;8060;50.948;3.146;2023-06-10T14:02:43;7.47;;;4.95;;
15921;SDS011;8060;50.948;3.146;2023-06-10T14:05:13;6.47;;;4.82;;
15921;SDS011;8060;50.948;3.146;2023-06-10T14:07:42;10.15;;;5.18;;
15921;SDS011;8060;50.948;3.146;2023-06-10T14:10:10;8.50;;;4.68;;
15921;SDS011;8060;50.948;3.146;2023-06-10T14:12:38;7.47;;;4.38;;
15921;SDS011;8060;50.948;3.146;2023-06-10T14:15:07;5.03;;;4.45;;
15921;SDS011;8060;50.948;3.146;2023-06-10T14:17:36;5.72;;;4.25;;
15921;SDS011;8060;50.948;3.146;2023-06-10T14:20:04;7.13;;;4.68;;
15921;SDS011;8060;50.948;3.146;2023-06-10T14:22:33;6.25;;;4.65;;
15921;SDS011;8060;50.948;3.146;2023-06-10T14:25:03;6.70;;;4.53;;
15921;SDS011;8060;50.948;3.146;2023-06-10T14:27:32;7.38;;;4.47;;
15921;SDS011;8060;50.948;3.146;2023-06-10T14:30:01;8.35;;;4.30;;
15921;SDS011;8060;50.948;3.146;2023-06-10T14:32:30;6.50;;;3.83;;
15921;SDS011;8060;50.948;3.146;2023-06-10T14:34:58;5.38;;;4.35;;
15921;SDS011;8060;50.948;3.146;2023-06-10T14:37:26;4.82;;;4.13;;
15921;SDS011;8060;50.948;3.146;2023-06-10T14:39:54;8.25;;;4.85;;
15921;SDS011;8060;50.948;3.146;2023-06-10T14:42:24;7.15;;;4.32;;
15921;SDS011;8060;50.948;3.146;2023-06-10T14:44:52;6.88;;;4.10;;
15921;SDS011;8060;50.948;3.146;2023-06-10T14:47:20;6.20;;;4.03;;
15921;SDS011;8060;50.948;3.146;2023-06-10T14:49:48;8.40;;;4.45;;
15921;SDS011;8060;50.948;3.146;2023-06-10T14:52:17;10.60;;;4.43;;
15921;SDS011;8060;50.948;3.146;2023-06-10T14:54:45;7.43;;;4.00;;
15921;SDS011;8060;50.948;3.146;2023-06-10T14:57:13;5.50;;;4.38;;
15921;SDS011;8060;50.948;3.146;2023-06-10T14:59:42;8.68;;;4.03;;
15921;SDS011;8060;50.948;3.146;2023-06-10T15:02:11;5.45;;;4.25;;
15921;SDS011;8060;50.948;3.146;2023-06-10T15:04:39;5.35;;;4.10;;
15921;SDS011;8060;50.948;3.146;2023-06-10T15:07:07;4.75;;;4.05;;
15921;SDS011;8060;50.948;3.146;2023-06-10T15:09:35;4.85;;;4.35;;
15921;SDS011;8060;50.948;3.146;2023-06-10T15:12:03;9.00;;;4.60;;
15921;SDS011;8060;50.948;3.146;2023-06-10T15:14:32;6.28;;;4.55;;
15921;SDS011;8060;50.948;3.146;2023-06-10T15:17:01;8.77;;;4.32;;
15921;SDS011;8060;50.948;3.146;2023-06-10T15:19:30;10.38;;;4.32;;
15921;SDS011;8060;50.948;3.146;2023-06-10T15:21:58;5.28;;;4.47;;
15921;SDS011;8060;50.948;3.146;2023-06-10T15:24:26;6.85;;;4.10;;
15921;SDS011;8060;50.948;3.146;2023-06-10T15:26:54;4.55;;;3.97;;
15921;SDS011;8060;50.948;3.146;2023-06-10T15:29:22;7.55;;;4.43;;
15921;SDS011;8060;50.948;3.146;2023-06-10T15:31:50;10.88;;;4.68;;
15921;SDS011;8060;50.948;3.146;2023-06-10T15:34:20;10.93;;;5.00;;
15921;SDS011;8060;50.948;3.146;2023-06-10T15:36:48;8.85;;;4.38;;
15921;SDS011;8060;50.948;3.146;2023-06-10T15:39:16;6.30;;;4.40;;
15921;SDS011;8060;50.948;3.146;2023-06-10T15:41:45;7.40;;;4.45;;
15921;SDS011;8060;50.948;3.146;2023-06-10T15:44:13;5.70;;;5.20;;
15921;SDS011;8060;50.948;3.146;2023-06-10T15:46:41;29.42;;;15.65;;
15921;SDS011;8060;50.948;3.146;2023-06-10T15:49:09;7.13;;;5.50;;
15921;SDS011;8060;50.948;3.146;2023-06-10T15:51:39;8.52;;;5.22;;
15921;SDS011;8060;50.948;3.146;2023-06-10T15:54:14;7.00;;;4.82;;
15921;SDS011;8060;50.948;3.146;2023-06-10T15:56:42;6.13;;;5.10;;
15921;SDS011;8060;50.948;3.146;2023-06-10T15:59:10;9.85;;;4.72;;
15921;SDS011;8060;50.948;3.146;2023-06-10T16:08:14;8.02;;;4.95;;
15921;SDS011;8060;50.948;3.146;2023-06-10T16:10:43;11.70;;;5.28;;
15921;SDS011;8060;50.948;3.146;2023-06-10T16:13:11;8.25;;;4.82;;
15921;SDS011;8060;50.948;3.146;2023-06-10T16:15:39;8.65;;;4.80;;
15921;SDS011;8060;50.948;3.146;2023-06-10T16:18:07;7.20;;;4.55;;
15921;SDS011;8060;50.948;3.146;2023-06-10T16:20:35;6.60;;;4.72;;
15921;SDS011;8060;50.948;3.146;2023-06-10T16:23:04;7.93;;;4.80;;
15921;SDS011;8060;50.948;3.146;2023-06-10T16:25:34;5.28;;;4.50;;
15921;SDS011;8060;50.948;3.146;2023-06-10T16:28:02;7.60;;;4.95;;
15921;SDS011;8060;50.948;3.146;2023-06-10T16:30:30;6.85;;;5.18;;
15921;SDS011;8060;50.948;3.146;2023-06-10T16:32:59;7.47;;;5.35;;
15921;SDS011;8060;50.948;3.146;2023-06-10T16:35:27;9.50;;;5.07;;
15921;SDS011;8060;50.948;3.146;2023-06-10T16:37:56;9.90;;;5.25;;
15921;SDS011;8060;50.948;3.146;2023-06-10T16:40:28;8.23;;;5.20;;
15921;SDS011;8060;50.948;3.146;2023-06-10T16:42:58;5.72;;;5.13;;
15921;SDS011;8060;50.948;3.146;2023-06-10T16:45:26;11.38;;;5.20;;
15921;SDS011;8060;50.948;3.146;2023-06-10T17:26:57;14.05;;;6.18;;
15921;SDS011;8060;50.948;3.146;2023-06-10T17:29:25;8.77;;;6.10;;
15921;SDS011;8060;50.948;3.146;2023-06-10T17:31:53;7.47;;;6.32;;
15921;SDS011;8060;50.948;3.146;2023-06-10T17:34:21;40.97;;;24.75;;
15921;SDS011;8060;50.948;3.146;2023-06-10T17:36:49;41.45;;;22.92;;
15921;SDS011;8060;50.948;3.146;2023-06-10T17:39:17;44.15;;;26.45;;
15921;SDS011;8060;50.948;3.146;2023-06-10T17:41:46;25.27;;;15.63;;
15921;SDS011;8060;50.948;3.146;2023-06-10T17:44:15;28.63;;;16.40;;
15921;SDS011;8060;50.948;3.146;2023-06-10T17:46:47;31.05;;;16.98;;
15921;SDS011;8060;50.948;3.146;2023-06-10T17:49:15;16.00;;;9.02;;
15921;SDS011;8060;50.948;3.146;2023-06-10T17:51:43;25.55;;;16.85;;
15921;SDS011;8060;50.948;3.146;2023-06-10T17:54:12;10.68;;;7.47;;
15921;SDS011;8060;50.948;3.146;2023-06-10T17:56:40;12.07;;;8.88;;
15921;SDS011;8060;50.948;3.146;2023-06-10T17:59:08;10.80;;;8.32;;
15921;SDS011;8060;50.948;3.146;2023-06-10T18:01:37;13.02;;;7.63;;
15921;SDS011;8060;50.948;3.146;2023-06-10T18:04:06;10.50;;;7.25;;
15921;SDS011;8060;50.948;3.146;2023-06-10T18:06:34;14.25;;;7.55;;
15921;SDS011;8060;50.948;3.146;2023-06-10T18:09:03;7.85;;;6.72;;
15921;SDS011;8060;50.948;3.146;2023-06-10T18:11:31;13.07;;;6.40;;
15921;SDS011;8060;50.948;3.146;2023-06-10T18:13:59;12.15;;;6.18;;
15921;SDS011;8060;50.948;3.146;2023-06-10T18:16:27;10.18;;;5.88;;
15921;SDS011;8060;50.948;3.146;2023-06-10T18:18:57;9.07;;;7.55;;
15921;SDS011;8060;50.948;3.146;2023-06-10T18:21:25;9.15;;;7.10;;
15921;SDS011;8060;50.948;3.146;2023-06-10T18:23:53;11.63;;;6.35;;
15921;SDS011;8060;50.948;3.146;2023-06-10T18:26:21;12.63;;;6.35;;
15921;SDS011;8060;50.948;3.146;2023-06-10T18:28:49;15.82;;;5.80;;
15921;SDS011;8060;50.948;3.146;2023-06-10T18:31:17;8.70;;;5.95;;
15921;SDS011;8060;50.948;3.146;2023-06-10T18:33:46;7.75;;;6.00;;
15921;SDS011;8060;50.948;3.146;2023-06-10T18:36:15;6.75;;;5.97;;
15921;SDS011;8060;50.948;3.146;2023-06-10T18:38:43;16.95;;;6.95;;
15921;SDS011;8060;50.948;3.146;2023-06-10T18:41:12;7.95;;;5.90;;
15921;SDS011;8060;50.948;3.146;2023-06-10T18:43:40;8.18;;;6.43;;
15921;SDS011;8060;50.948;3.146;2023-06-10T18:46:08;11.90;;;6.30;;
15921;SDS011;8060;50.948;3.146;2023-06-10T18:48:36;10.27;;;6.57;;
15921;SDS011;8060;50.948;3.146;2023-06-10T18:51:06;9.93;;;5.95;;
15921;SDS011;8060;50.948;3.146;2023-06-10T18:53:35;6.50;;;5.72;;
15921;SDS011;8060;50.948;3.146;2023-06-10T18:56:04;13.35;;;6.47;;
15921;SDS011;8060;50.948;3.146;2023-06-10T18:58:32;10.10;;;6.45;;
15921;SDS011;8060;50.948;3.146;2023-06-10T19:01:02;9.32;;;6.32;;
15921;SDS011;8060;50.948;3.146;2023-06-10T19:03:30;12.48;;;6.05;;
15921;SDS011;8060;50.948;3.146;2023-06-10T19:05:59;11.88;;;6.00;;
15921;SDS011;8060;50.948;3.146;2023-06-10T19:08:27;12.88;;;6.25;;
15921;SDS011;8060;50.948;3.146;2023-06-10T19:10:57;10.55;;;6.25;;
15921;SDS011;8060;50.948;3.146;2023-06-10T19:13:25;12.13;;;6.28;;
15921;SDS011;8060;50.948;3.146;2023-06-10T19:15:55;6.85;;;6.15;;
15921;SDS011;8060;50.948;3.146;2023-06-10T19:18:27;11.60;;;6.00;;
